Maury, North Carolina
Current Conditions -  °F | °C
As of 9:15 PM on Friday 28 Nov 2014 (Local Time) from KISO Reporting Station
Clear Clear  
Wind Chill: 29°   Ceiling: Unl
Heat Index: 29°   Visibility: 10mi
Dew Point: 28°   Wind: 0mph
Humidity: 96%   Direction: NA
Pressure: 30.34"   Gusts: NA
Location:  35.48°N, 77.59°W
Report Text: KISO 290215Z AUTO 00000KT 10SM CLR M01/M02 A3034 RMK AO2 T10151021
Loading
Personal Weather Stations






























Interactive Weather Map New forecast layout! Learn more

10-Day Weather Forecast

Advertisements
Track Severe Weather on mobile